Station: Oakey  

  Atmospheric Gas Attenuation - ITU Rec 676-11   ----------------- dB/100km -----------------
Date Time Temp RH % AH g/m3 Dew Point Wind Direction Speed kph Gust kph Barometer mB Rainfall Since 9am 24GHz 47GHz 76GHz 122GHz 134GHz 241GHz
08/05 12:30 17.8 28 4.25 -0.9 20 32 1019.9 0 10.2 18.8 22.9 59.2 43.6 146.6
08/05 12:20 17.7 27 4.07 -1.5 28 32 1020 0 9.9 18.6 22.3 57.7 41.8 140.1
08/05 12:10 17.3 26 3.83 -2.4 17 24 1020.3 0 9.4 18.4 21.7 56.0 39.5 131.9
08/05 12:00 16.8 28 4 -1.8 20 28 1020.2 0 9.8 18.7 22.4 57.8 41.5 139.0
08/05 11:50 16.5 27 3.79 -2.5 22 28 1020.6 0 9.3 18.5 21.8 56.2 39.4 131.7
08/05 11:40 16.3 28 3.88 -2.2 22 28 1020.7 0 9.5 18.7 22.1 57.1 40.5 135.4
08/05 11:30 15.6 29 3.86 -2.3 22 28 1020.9 0 9.5 18.8 22.2 57.4 40.6 135.8
08/05 11:20 16.2 31 4.27 -0.9 17 19 1021.1 0 10.3 19.2 23.4 60.6 44.8 150.4
08/05 11:10 14.8 32 4.05 -1.7 20 24 1021.4 0 9.9 19.2 23.1 59.7 43.1 144.5
08/05 11:00 14.7 33 4.15 -1.4 24 26 1021.5 0 10.1 19.4 23.5 60.7 44.3 148.5
08/05 10:50 15 34 4.36 -0.7 22 28 1021.8 0 10.6 19.6 24.1 62.3 46.4 156.2
08/05 10:40 14.6 35 4.38 -0.7 20 26 1021.9 0 10.6 19.7 24.3 62.8 46.9 157.7
08/05 10:30 13.9 35 4.2 -1.3 22 26 1021.9 0 10.3 19.6 23.9 61.7 45.3 152.0
08/05 10:20 13.6 39 4.59 -0.1 20 22 1022 0 11.1 20.2 25.3 65.5 49.9 168.0
08/05 10:10 13.1 39 4.45 -0.5 19 20 1022 0 10.8 20.1 25.0 64.6 48.6 163.4
08/05 10:00 12.8 38 4.26 -1.1 15 17 1022 0 10.4 19.9 24.4 63.1 46.6 156.4
08/05 09:50 12.4 39 4.26 -1.1 17 17 1022.1 0 10.4 20.0 24.5 63.4 46.8 157.2
08/05 09:40 12.1 41 4.4 -0.7 13 15 1022.3 0 10.7 20.3 25.1 65.0 48.6 163.5
08/05 09:30 11.7 42 4.39 -0.8 11 13 1022.3 0 10.7 20.4 25.2 65.2 48.7 163.9
08/05 09:20 11.4 42 4.31 -1 20 24 1022.3 0 10.6 20.3 25.0 64.7 48.0 161.2
08/05 09:10 11 42 4.2 -1.4 20 24 1022.1 0 10.3 20.2 24.7 64.0 47.0 157.5
08/05 09:00 10.9 44 4.38 -0.9 19 24 1022.3 0 10.7 20.5 25.4 65.8 49.1 165.1
08/05 08:50 10.5 46 4.46 -0.6 19 20 1022.1 0 10.9 20.7 25.8 66.8 50.3 169.2
08/05 08:40 10.3 46 4.41 -0.8 19 20 1022.3 0 10.8 20.7 25.7 66.6 49.8 167.5
08/05 08:30 9.9 46 4.3 -1.2 15 17 1022.3 0 10.6 20.6 25.4 65.8 48.8 163.8
08/05 08:20 9.3 49 4.4 -0.8 15 19 1022.4 0 10.8 20.9 26.0 67.3 50.3 169.2
08/05 08:10 8.4 52 4.41 -0.9 13 15 1022.4 0 10.9 21.1 26.3 68.1 51.0 171.5
08/05 08:00 7.1 59 4.6 -0.4 6 7 1022 0 11.3 21.7 27.4 71.1 54.2 182.5
08/05 07:50 6.7 59 4.49 -0.7 6 9 1022.3 0 11.1 21.6 27.1 70.4 53.1 178.6
08/05 07:40 6.5 61 4.58 -0.5 9 11 1022.3 0 11.3 21.8 27.5 71.5 54.4 183.0
08/05 07:30 5.9 61 4.4 -1 11 11 1022 0 10.9 21.7 27.1 70.2 52.5 176.4
08/05 07:20 5.4 68 4.75 0 7 9 1022.1 0 11.7 22.4 28.6 74.2 57.3 193.1
08/05 07:10 4.5 74 4.87 0.3 9 9 1022 0 12.0 22.8 29.4 76.3 59.5 200.7
08/05 07:00 4.2 75 4.84 0.2 7 9 1022 0 11.9 22.8 29.3 76.3 59.3 200.1
08/05 06:50 3.1 83 4.97 0.5 13 13 1022.1 0 12.2 23.3 30.3 78.8 61.9 209.0
08/05 06:40 2.1 83 4.65 -0.5 9 9 1021.9 0 11.6 23.0 29.4 76.3 58.4 196.6
08/05 06:30 2.1 79 4.42 -1.2 7 7 1021.7 0 11.1 22.6 28.4 73.8 55.4 185.9
08/05 06:20 2.6 78 4.52 -0.8 15 15 1021.4 0 11.3 22.7 28.6 74.4 56.3 189.3
08/05 06:10 2.4 78 4.46 -1 13 15 1021.5 0 11.2 22.6 28.5 73.9 55.7 187.0
08/05 06:00 2.5 79 4.55 -0.8 9 9 1021.4 0 11.4 22.7 28.8 74.8 56.8 190.9
08/05 05:50 1.7 82 4.47 -1 11 11 1021.1 0 11.2 22.8 28.7 74.7 56.3 189.1
08/05 05:40 2.7 76 4.43 -1.1 13 13 1021.2 0 11.1 22.5 28.2 73.3 55.1 184.9
08/05 05:30 2.9 76 4.49 -0.9 13 17 1020.9 0 11.2 22.5 28.4 73.7 55.7 187.1
08/05 05:20 3.5 73 4.49 -0.9 17 17 1020.8 0 11.2 22.4 28.2 73.2 55.3 185.7
08/05 05:10 3.4 72 4.4 -1.2 15 17 1020.8 0 11.0 22.2 27.9 72.3 54.2 181.8
08/05 05:00 3.8 69 4.33 -1.4 17 20 1020.6 0 10.8 22.0 27.4 71.2 53.0 177.7
08/05 04:50 4.2 66 4.26 -1.6 17 20 1020.8 0 10.7 21.8 27.0 70.2 51.8 173.8
08/05 04:40 4.7 63 4.2 -1.7 13 13 1020.5 0 10.5 21.6 26.6 69.1 50.7 170.0
08/05 04:30 5 62 4.22 -1.7 13 17 1020.4 0 10.6 21.6 26.6 69.0 50.8 170.2
08/05 04:20 4.4 66 4.31 -1.4 13 15 1020.4 0 10.8 21.9 27.2 70.5 52.3 175.5
08/05 04:10 4.6 67 4.44 -1 13 17 1020.3 0 11.0 22.0 27.6 71.6 53.8 180.8
08/05 04:00 4.8 66 4.43 -1 20 24 1020.2 0 11.0 21.9 27.5 71.3 53.6 179.9
08/05 03:50 4.9 65 4.39 -1.1 20 20 1020.4 0 10.9 21.9 27.3 70.8 53.0 177.9
08/05 03:40 5.6 60 4.24 -1.5 19 20 1020.5 0 10.6 21.5 26.5 68.7 50.7 169.8
08/05 03:30 6 58 4.21 -1.6 19 24 1020.2 0 10.5 21.3 26.2 68.0 50.0 167.6
08/05 03:20 6 59 4.28 -1.4 19 20 1020.3 0 10.7 21.4 26.5 68.7 50.9 170.7
08/05 03:10 6.6 55 4.15 -1.8 19 20 1020 0 10.4 21.1 25.8 66.9 48.9 163.8
08/05 03:00 6.6 55 4.15 -1.8 19 24 1020.1 0 10.4 21.1 25.8 66.9 48.9 163.8
08/05 02:50 7.1 53 4.14 -1.8 20 24 1020 0 10.3 20.9 25.6 66.4 48.5 162.4
08/05 02:40 7.2 53 4.16 -1.7 19 24 1020.2 0 10.4 21.0 25.7 66.5 48.7 163.0
08/05 02:30 7.3 53 4.19 -1.6 19 24 1020 0 10.4 21.0 25.8 66.7 49.0 164.1
08/05 02:20 7.7 51 4.14 -1.8 17 19 1020.3 0 10.3 20.8 25.5 65.9 48.1 161.2
08/05 02:10 6 63 4.58 -0.5 13 19 1020.2 0 11.3 21.9 27.6 71.8 54.6 183.8
08/05 02:00 5.5 68 4.78 0.1 15 17 1020 0 11.7 22.3 28.6 74.2 57.5 193.8
08/05 01:50 5.5 68 4.78 0.1 11 13 1020.2 0 11.7 22.3 28.6 74.3 57.5 193.9
08/05 01:40 5.9 68 4.91 0.5 13 15 1020.3 0 12.0 22.4 28.9 75.2 58.9 198.7
08/05 01:30 6.4 66 4.92 0.5 19 20 1020.1 0 12.0 22.3 28.8 74.8 58.6 197.9
08/05 01:20 6.6 66 4.99 0.7 19 20 1020.3 0 12.2 22.4 29.0 75.4 59.4 200.5
08/05 01:10 7.1 63 4.92 0.5 17 17 1020.4 0 12.0 22.1 28.6 74.2 58.1 196.2
08/05 01:00 8 56 4.63 -0.2 19 24 1020.3 0 11.3 21.5 27.2 70.5 53.9 181.5
08/05 00:50 9 50 4.41 -0.9 19 24 1020.3 0 10.8 20.9 26.0 67.5 50.6 169.9
08/05 00:40 9.2 52 4.64 -0.1 20 24 1020.4 0 11.3 21.2 26.8 69.5 53.2 179.2
08/05 00:30 9 55 4.85 0.5 20 28 1020 0 11.8 21.6 27.6 71.7 55.9 188.6
08/05 00:20 9.6 56 5.13 1.3 22 24 1020.4 0 12.4 21.9 28.5 74.0 58.9 199.2
08/05 00:10 9.5 62 5.65 2.6 20 24 1020.4 0 13.5 22.7 30.4 79.3 65.4 222.1
08/05 00:00 10 60 5.64 2.6 22 30 1020.3 0 13.4 22.5 30.2 78.7 64.8 220.3
07/05 23:50 9.9 62 5.79 3 20 20 1020.4 0 13.8 22.8 30.8 80.3 66.8 227.2
07/05 23:40 10.5 60 5.82 3.1 20 24 1020.4 0 13.8 22.7 30.7 80.0 66.7 226.8
07/05 23:30 10.9 59 5.87 3.2 22 30 1020.3 0 13.9 22.6 30.7 80.1 67.0 227.8
07/05 23:20 11 61 6.11 3.8 20 24 1020.3 0 14.4 23.0 31.6 82.5 69.9 238.0
07/05 23:10 11.1 62 6.25 4.1 19 22 1020.2 0 14.7 23.2 32.1 83.8 71.5 243.9
07/05 23:00 11.2 62 6.29 4.2 20 30 1020.2 0 14.8 23.2 32.2 84.1 71.9 245.3
07/05 22:50 11.4 64 6.57 4.8 20 24 1020 0 15.4 23.6 33.2 86.7 75.3 257.1
07/05 22:40 11.4 67 6.88 5.5 19 20 1020.2 0 16.0 24.1 34.4 89.9 79.2 271.0
07/05 22:30 11.6 65 6.76 5.3 22 30 1020 0 15.8 23.8 33.8 88.4 77.5 264.9
07/05 22:20 11.7 66 6.9 5.6 22 28 1020 0 16.0 24.0 34.3 89.8 79.2 270.8
07/05 22:10 12.1 66 7.08 5.9 24 28 1020 0 16.4 24.2 34.9 91.2 81.1 277.5
07/05 22:00 12.2 66 7.12 6 24 32 1019.9 0 16.5 24.2 35.0 91.5 81.5 278.9
07/05 21:50 11.9 67 7.1 6 19 22 1020 0 16.5 24.3 35.0 91.6 81.5 279.1
07/05 21:40 11.5 69 7.13 6 20 22 1020 0 16.5 24.4 35.3 92.4 82.4 281.9
07/05 21:30 10.8 72 7.12 6 15 22 1019.9 0 16.6 24.6 35.6 93.1 83.0 283.9
07/05 21:20 9 79 6.97 5.6 13 13 1019.8 0 16.3 24.9 35.8 93.6 82.9 283.4
07/05 21:10 9 79 6.97 5.6 11 13 1019.7 0 16.3 24.9 35.8 93.6 82.9 283.4
07/05 21:00 9.5 76 6.92 5.5 11 13 1019.5 0 16.2 24.6 35.4 92.5 81.7 279.2
07/05 20:50 10.1 73 6.9 5.5 11 13 1019.5 0 16.1 24.4 35.0 91.6 80.8 276.2
07/05 20:40 10.8 70 6.92 5.6 15 15 1019.5 0 16.1 24.3 34.8 91.0 80.3 274.7
07/05 20:30 10.5 70 6.79 5.3 13 15 1019.5 0 15.9 24.1 34.4 89.9 78.9 269.8
07/05 20:20 10.8 70 6.92 5.6 13 15 1019.5 0 16.1 24.3 34.8 91.0 80.3 274.7
07/05 20:10 11.2 67 6.79 5.3 13 15 1019.3 0 15.8 24.0 34.1 89.1 78.2 267.4
07/05 20:00 11.3 66 6.73 5.2 13 13 1019.3 0 15.7 23.8 33.8 88.4 77.4 264.4

Last Refresh: 08-May-2026 12:07:36

Bureau of Meteorology